Time;durP1;ratioP1;P1;durP2;ratioP2;P2;SDS_P1;SDS_P2;PMS_P1;PMS_P2;Temp;Humidity;BMP_temperature;BMP_pressure;BME280_temperature;BME280_humidity;BME280_pressure;Samples;Min_cycle;Max_cycle;Signal;HPM_P1;HPM_P2
2022/08/28 00:01:35;;;;;;;5.38;4.15;;;13.10;99.90;;;;;;4937765;28;94010;-30
2022/08/28 00:04:00;;;;;;;5.75;3.67;;;13.10;99.90;;;;;;4938146;28;93150;-32
2022/08/28 00:06:27;;;;;;;9.20;4.18;;;13.10;99.90;;;;;;4938043;28;96669;-30
2022/08/28 00:08:52;;;;;;;8.55;4.50;;;13.00;99.90;;;;;;4938622;28;93165;-29
2022/08/28 00:11:19;;;;;;;3.78;3.40;;;13.00;99.90;;;;;;4938901;28;94504;-34
2022/08/28 00:13:46;;;;;;;8.65;4.47;;;13.10;99.90;;;;;;4938044;28;93747;-31
2022/08/28 00:16:11;;;;;;;8.40;4.07;;;13.00;99.90;;;;;;4938114;28;93527;-35
2022/08/28 00:18:37;;;;;;;6.10;3.00;;;13.00;99.90;;;;;;4938701;28;94844;-31
2022/08/28 00:21:03;;;;;;;17.65;4.50;;;13.00;99.90;;;;;;4938913;28;92170;-31
2022/08/28 00:23:31;;;;;;;5.20;3.45;;;13.00;99.90;;;;;;4937956;28;93959;-34
2022/08/28 00:25:57;;;;;;;;;;;13.00;99.90;;;;;;4938424;28;95960;-30
2022/08/28 00:28:23;;;;;;;7.55;3.83;;;13.00;99.90;;;;;;4938373;28;96178;-30
2022/08/28 00:30:52;;;;;;;12.65;4.22;;;12.90;99.90;;;;;;4974186;22;94579;-30
2022/08/28 00:33:22;;;;;;;14.73;3.60;;;12.90;99.90;;;;;;4938468;28;94613;-28
2022/08/28 00:35:49;;;;;;;6.65;4.20;;;12.90;99.90;;;;;;4938046;28;94572;-31
2022/08/28 00:38:18;;;;;;;10.07;6.22;;;12.90;99.90;;;;;;4938402;28;95183;-30
2022/08/28 00:40:49;;;;;;;5.95;4.10;;;12.90;99.90;;;;;;4938812;28;93118;-31
2022/08/28 00:43:42;;;;;;;5.00;3.25;;;12.80;99.90;;;;;;4938518;28;92979;-31
2022/08/28 00:46:18;;;;;;;4.80;3.45;;;12.80;99.90;;;;;;4937677;28;94801;-32
2022/08/28 00:48:44;;;;;;;8.43;4.03;;;12.80;99.90;;;;;;4938033;28;94487;-32
2022/08/28 00:53:56;;;;;;;5.63;3.95;;;12.80;99.90;;;;;;4937410;28;92503;-29
2022/08/28 00:56:22;;;;;;;11.55;4.35;;;12.80;99.90;;;;;;4937999;28;94851;-34
2022/08/28 00:58:50;;;;;;;7.47;4.05;;;12.80;99.90;;;;;;4937977;28;94973;-31
2022/08/28 01:01:16;;;;;;;5.55;3.83;;;12.80;99.90;;;;;;4937653;28;92409;-29
2022/08/28 01:03:43;;;;;;;12.60;4.38;;;12.70;99.90;;;;;;4937463;28;93567;-29
2022/08/28 01:06:12;;;;;;;10.65;4.97;;;12.70;99.90;;;;;;4937737;28;94848;-30
2022/08/28 01:08:41;;;;;;;6.18;3.78;;;12.70;99.90;;;;;;4938242;28;94491;-30
2022/08/28 01:11:08;;;;;;;5.00;3.70;;;12.70;99.90;;;;;;4938248;28;93019;-30
2022/08/28 01:13:36;;;;;;;11.60;4.75;;;12.60;99.90;;;;;;4936839;28;92295;-33
2022/08/28 01:16:02;;;;;;;;;;;12.60;99.90;;;;;;4937282;28;94620;-30
2022/08/28 01:18:29;;;;;;;5.60;3.85;;;12.60;99.90;;;;;;4938742;28;93096;-30
2022/08/28 01:20:57;;;;;;;6.03;4.30;;;12.60;99.90;;;;;;4938516;28;92480;-30
2022/08/28 01:23:43;;;;;;;;;;;12.60;99.90;;;;;;4937947;28;94844;-29
2022/08/28 01:26:08;;;;;;;4.45;3.42;;;12.60;99.90;;;;;;4938622;28;94723;-30
2022/08/28 01:28:34;;;;;;;6.85;3.75;;;12.60;99.90;;;;;;4936954;28;94716;-29
2022/08/28 01:30:59;;;;;;;9.82;3.70;;;12.60;99.90;;;;;;4937229;28;93134;-29
2022/08/28 01:33:25;;;;;;;8.73;4.97;;;12.60;99.90;;;;;;4937483;28;92422;-30
2022/08/28 01:35:50;;;;;;;7.13;4.00;;;12.60;99.90;;;;;;4936532;28;95093;-30
2022/08/28 01:38:17;;;;;;;6.18;3.75;;;12.60;99.90;;;;;;4937439;28;94301;-30
2022/08/28 01:40:46;;;;;;;7.60;4.68;;;12.60;99.90;;;;;;4937113;28;95439;-31
2022/08/28 01:43:18;;;;;;;8.38;4.65;;;12.50;99.90;;;;;;4934947;28;94254;-36
2022/08/28 01:45:47;;;;;;;4.53;2.90;;;12.50;99.90;;;;;;4937993;28;94666;-33
2022/08/28 01:48:14;;;;;;;9.48;4.30;;;12.50;99.90;;;;;;4936573;28;93982;-31
2022/08/28 01:50:39;;;;;;;4.72;4.22;;;12.50;99.90;;;;;;4937326;28;92770;-29
2022/08/28 01:53:06;;;;;;;9.82;3.58;;;12.40;99.90;;;;;;4937214;28;92397;-33
2022/08/28 01:55:34;;;;;;;5.75;3.45;;;12.40;99.90;;;;;;4937157;28;94941;-29
2022/08/28 01:58:02;;;;;;;8.50;4.90;;;12.40;99.90;;;;;;4937327;28;93878;-30
2022/08/28 02:00:28;;;;;;;10.30;5.35;;;12.40;99.90;;;;;;4936655;28;92414;-31
2022/08/28 02:02:55;;;;;;;7.97;3.15;;;12.40;99.90;;;;;;4936967;28;94303;-29
2022/08/28 02:05:24;;;;;;;4.85;4.10;;;12.40;99.90;;;;;;4936516;28;95942;-29
2022/08/28 02:07:51;;;;;;;4.30;3.95;;;12.40;99.90;;;;;;4936942;28;93545;-30
2022/08/28 02:10:17;;;;;;;9.57;3.75;;;12.40;99.90;;;;;;4936270;28;93306;-30
2022/08/28 02:12:43;;;;;;;5.13;3.85;;;12.30;99.90;;;;;;4938820;28;93661;-30
2022/08/28 02:15:09;;;;;;;7.38;3.40;;;12.30;99.90;;;;;;4940293;28;94479;-29
2022/08/28 02:17:35;;;;;;;6.93;3.85;;;12.30;99.90;;;;;;4939404;28;94487;-33
2022/08/28 02:20:01;;;;;;;9.68;3.80;;;12.30;99.90;;;;;;4941351;28;94340;-29
2022/08/28 02:22:26;;;;;;;7.30;4.43;;;12.30;99.90;;;;;;4939377;28;92138;-32
2022/08/28 02:24:52;;;;;;;9.38;4.13;;;12.30;99.90;;;;;;4940122;28;94790;-29
2022/08/28 02:27:18;;;;;;;7.32;4.35;;;12.30;99.90;;;;;;4939507;28;94401;-33
2022/08/28 02:29:43;;;;;;;9.93;3.92;;;12.30;99.90;;;;;;4939856;28;93185;-34
2022/08/28 02:32:09;;;;;;;10.18;5.18;;;12.30;99.90;;;;;;4940643;28;94032;-29
2022/08/28 02:34:36;;;;;;;8.57;3.45;;;12.30;99.90;;;;;;4938930;28;94725;-30
2022/08/28 02:37:02;;;;;;;7.63;4.43;;;12.30;99.90;;;;;;4940301;28;94287;-29
2022/08/28 02:39:27;;;;;;;7.97;4.05;;;12.30;99.90;;;;;;4939964;28;93049;-31
2022/08/28 02:41:53;;;;;;;8.23;4.32;;;12.30;99.90;;;;;;4939756;28;94089;-32
2022/08/28 02:44:19;;;;;;;11.25;3.75;;;12.20;99.90;;;;;;4939502;28;94744;-30
2022/08/28 02:46:44;;;;;;;4.80;3.72;;;12.20;99.90;;;;;;4939781;28;94444;-31
2022/08/28 02:49:10;;;;;;;5.97;3.83;;;12.20;99.90;;;;;;4940190;28;93448;-30
2022/08/28 02:51:35;;;;;;;12.57;4.25;;;12.30;99.90;;;;;;4939582;28;94067;-30
2022/08/28 02:54:01;;;;;;;6.25;4.13;;;12.20;99.90;;;;;;4938967;28;95336;-34
2022/08/28 02:56:27;;;;;;;7.57;3.83;;;12.20;99.90;;;;;;4939426;28;96971;-31
2022/08/28 02:58:54;;;;;;;6.97;3.85;;;12.20;99.90;;;;;;4939562;28;93274;-30
2022/08/28 03:01:20;;;;;;;6.38;4.22;;;12.20;99.90;;;;;;4939457;28;93164;-31
2022/08/28 03:03:46;;;;;;;10.95;4.85;;;12.20;99.90;;;;;;4939687;28;94486;-30
2022/08/28 03:06:12;;;;;;;10.05;4.55;;;12.10;99.90;;;;;;4938918;28;94260;-34
2022/08/28 03:08:40;;;;;;;11.40;4.15;;;12.10;99.90;;;;;;4940417;28;92974;-32
2022/08/28 03:11:06;;;;;;;15.45;4.22;;;12.10;99.90;;;;;;4939439;28;93000;-31
2022/08/28 03:13:31;;;;;;;8.95;4.70;;;12.10;99.90;;;;;;4938588;28;94680;-31
2022/08/28 03:15:58;;;;;;;5.57;3.75;;;12.10;99.90;;;;;;4939894;28;94440;-29
2022/08/28 03:18:26;;;;;;;8.88;4.78;;;12.10;99.90;;;;;;4938747;28;93971;-32
2022/08/28 03:20:54;;;;;;;6.18;3.65;;;12.10;99.90;;;;;;4939243;28;92209;-31
2022/08/28 03:23:26;;;;;;;5.78;3.95;;;12.10;99.90;;;;;;4937389;28;95081;-29
2022/08/28 03:25:58;;;;;;;9.63;5.03;;;12.00;99.90;;;;;;4939207;28;94567;-29
2022/08/28 03:28:26;;;;;;;12.98;3.70;;;12.00;99.90;;;;;;4939193;28;92987;-29
2022/08/28 03:30:51;;;;;;;8.10;3.83;;;12.00;99.90;;;;;;4939202;28;94775;-32
2022/08/28 03:33:18;;;;;;;15.07;4.60;;;12.00;99.90;;;;;;4938818;28;93930;-32
2022/08/28 03:35:43;;;;;;;5.53;3.53;;;12.00;99.90;;;;;;4938839;28;94174;-30
2022/08/28 03:38:10;;;;;;;6.50;3.72;;;12.00;99.90;;;;;;4939007;28;94483;-31
2022/08/28 03:40:41;;;;;;;4.20;2.97;;;12.00;99.90;;;;;;4939254;28;94160;-31
2022/08/28 03:43:11;;;;;;;9.25;3.90;;;11.90;99.90;;;;;;4938547;28;95646;-33
2022/08/28 03:45:40;;;;;;;6.22;4.35;;;11.90;99.90;;;;;;4938494;28;95412;-30
2022/08/28 03:48:06;;;;;;;11.05;3.92;;;11.90;99.90;;;;;;4939447;28;93302;-29
2022/08/28 03:50:33;;;;;;;8.50;3.78;;;11.90;99.90;;;;;;4938447;28;93850;-31
2022/08/28 03:52:59;;;;;;;8.77;4.07;;;11.90;99.90;;;;;;4938442;28;94018;-32
2022/08/28 03:55:25;;;;;;;5.68;3.50;;;11.80;99.90;;;;;;4939055;28;94276;-33
2022/08/28 03:57:51;;;;;;;4.07;3.33;;;11.80;99.90;;;;;;4938602;28;94101;-31
2022/08/28 04:00:19;;;;;;;12.95;4.50;;;11.80;99.90;;;;;;4938821;28;92584;-33
2022/08/28 04:02:45;;;;;;;3.42;3.13;;;11.80;99.90;;;;;;4938693;28;94705;-35
2022/08/28 04:05:12;;;;;;;6.65;4.53;;;11.80;99.90;;;;;;4938505;28;94777;-31
2022/08/28 04:07:39;;;;;;;5.15;3.67;;;11.90;99.90;;;;;;4938503;28;93033;-31
2022/08/28 04:10:06;;;;;;;6.70;3.75;;;11.80;99.90;;;;;;4938408;28;93030;-32
2022/08/28 04:12:31;;;;;;;7.32;3.25;;;11.80;99.90;;;;;;4938312;28;95535;-29
2022/08/28 04:14:57;;;;;;;7.45;3.17;;;11.80;99.90;;;;;;4937888;28;94684;-29
2022/08/28 04:17:23;;;;;;;8.38;4.97;;;11.70;99.90;;;;;;4939044;28;94607;-32
2022/08/28 04:19:52;;;;;;;12.00;4.30;;;11.80;99.90;;;;;;4938067;28;92611;-32
2022/08/28 04:22:17;;;;;;;3.70;2.85;;;11.80;99.90;;;;;;4937554;28;94835;-29
2022/08/28 04:24:43;;;;;;;7.65;3.97;;;11.70;99.90;;;;;;4938911;28;94395;-32
2022/08/28 04:27:08;;;;;;;6.43;3.45;;;11.80;99.90;;;;;;4938778;28;94324;-30
2022/08/28 04:29:34;;;;;;;5.55;3.28;;;11.80;99.90;;;;;;4938067;28;94667;-35
2022/08/28 04:32:01;;;;;;;6.00;3.50;;;11.70;99.90;;;;;;4937777;28;95182;-31
2022/08/28 04:34:26;;;;;;;14.32;4.70;;;11.70;99.90;;;;;;4937179;28;96132;-31
2022/08/28 04:36:52;;;;;;;7.93;3.22;;;11.80;99.90;;;;;;4938944;28;92274;-32
2022/08/28 04:39:18;;;;;;;5.80;3.33;;;11.70;99.90;;;;;;4936245;28;93910;-32
2022/08/28 04:41:44;;;;;;;6.45;3.60;;;11.80;99.90;;;;;;4938243;28;94583;-30
2022/08/28 04:44:10;;;;;;;11.88;3.53;;;11.80;99.90;;;;;;4938111;28;94443;-33
2022/08/28 04:46:36;;;;;;;6.22;4.20;;;11.70;99.90;;;;;;4937725;28;94395;-34
2022/08/28 04:49:03;;;;;;;6.15;3.85;;;11.80;99.90;;;;;;4938589;28;93545;-29
2022/08/28 04:51:29;;;;;;;6.40;3.47;;;11.80;99.90;;;;;;4938334;28;94774;-30
2022/08/28 04:53:56;;;;;;;6.78;3.83;;;11.80;99.90;;;;;;4937798;28;95033;-33
2022/08/28 04:56:22;;;;;;;4.10;3.15;;;11.80;99.90;;;;;;4937944;28;94524;-31
2022/08/28 04:58:47;;;;;;;6.25;3.05;;;11.80;99.90;;;;;;4937875;28;92156;-31
2022/08/28 05:01:17;;;;;;;6.20;3.92;;;11.80;99.90;;;;;;4937160;28;95003;-31
2022/08/28 05:03:44;;;;;;;13.10;4.13;;;11.90;99.90;;;;;;4936166;28;95204;-29
2022/08/28 05:06:12;;;;;;;7.45;3.97;;;11.90;99.90;;;;;;4938600;28;92245;-34
2022/08/28 05:08:38;;;;;;;6.45;2.92;;;11.90;99.90;;;;;;4937732;28;94786;-32
2022/08/28 05:11:17;;;;;;;12.98;3.85;;;12.00;99.90;;;;;;4937189;28;94899;-30
2022/08/28 05:13:43;;;;;;;5.65;3.13;;;11.90;99.90;;;;;;4937183;28;94281;-30
2022/08/28 05:16:08;;;;;;;10.10;4.20;;;11.90;99.90;;;;;;4938409;28;93421;-30
2022/08/28 05:18:34;;;;;;;5.60;3.47;;;12.00;99.90;;;;;;4937469;28;94392;-33
2022/08/28 05:21:01;;;;;;;8.18;3.80;;;12.00;99.90;;;;;;4936802;28;95567;-34
2022/08/28 05:23:27;;;;;;;7.05;3.47;;;12.00;99.90;;;;;;4936689;28;94975;-33
2022/08/28 05:25:53;;;;;;;4.40;3.05;;;12.10;99.90;;;;;;4937061;28;93897;-33
2022/08/28 05:28:20;;;;;;;5.78;3.35;;;12.20;99.90;;;;;;4937260;28;94168;-30
2022/08/28 05:30:45;;;;;;;3.80;2.70;;;12.30;99.90;;;;;;4936968;28;95007;-33
2022/08/28 05:33:13;;;;;;;8.77;3.38;;;12.30;99.90;;;;;;4936792;28;94459;-32
2022/08/28 05:35:42;;;;;;;10.85;4.07;;;12.40;99.90;;;;;;4936979;28;92855;-31
2022/08/28 05:38:09;;;;;;;9.80;3.50;;;12.40;99.90;;;;;;4937778;28;93631;-34
2022/08/28 05:40:43;;;;;;;7.65;3.35;;;12.50;99.90;;;;;;4937255;28;94773;-33
2022/08/28 05:43:10;;;;;;;4.05;2.78;;;12.50;99.90;;;;;;4937005;28;94978;-29
2022/08/28 05:45:36;;;;;;;5.55;3.50;;;12.50;99.90;;;;;;4936491;28;94144;-32
2022/08/28 05:48:02;;;;;;;9.85;3.00;;;12.60;99.90;;;;;;4939631;28;93781;-31
2022/08/28 05:50:28;;;;;;;11.93;3.47;;;12.70;99.90;;;;;;4939077;28;95036;-31
2022/08/28 05:52:53;;;;;;;4.40;3.38;;;12.70;99.90;;;;;;4940147;28;94678;-32
2022/08/28 05:55:19;;;;;;;6.20;3.53;;;12.70;99.90;;;;;;4940511;28;94190;-34
2022/08/28 05:57:44;;;;;;;9.07;3.22;;;12.80;99.90;;;;;;4940300;28;92880;-31
2022/08/28 06:00:12;;;;;;;7.50;3.30;;;12.90;99.90;;;;;;4940422;28;95474;-33
2022/08/28 06:02:38;;;;;;;5.57;3.00;;;13.00;99.90;;;;;;4940499;28;95345;-31
2022/08/28 06:05:04;;;;;;;5.40;3.15;;;13.00;99.90;;;;;;4940582;28;93456;-30
2022/08/28 06:07:32;;;;;;;8.43;3.10;;;13.10;99.90;;;;;;4940973;28;93747;-33
2022/08/28 06:09:57;;;;;;;4.85;2.85;;;13.10;99.90;;;;;;4939454;28;96197;-29
2022/08/28 06:12:23;;;;;;;5.63;3.80;;;13.10;99.90;;;;;;4940543;28;95819;-31
2022/08/28 06:14:48;;;;;;;7.88;3.80;;;13.20;99.90;;;;;;4940419;28;94257;-31
2022/08/28 06:17:14;;;;;;;6.13;3.45;;;13.20;99.90;;;;;;4940206;28;94692;-34
2022/08/28 06:19:39;;;;;;;4.68;2.63;;;13.30;99.90;;;;;;4940009;28;95149;-34
2022/08/28 06:22:05;;;;;;;5.30;3.75;;;13.30;99.90;;;;;;4939584;28;94596;-35
2022/08/28 06:24:31;;;;;;;4.80;2.92;;;13.40;99.90;;;;;;4939788;28;94898;-29
2022/08/28 06:26:58;;;;;;;4.63;3.20;;;13.40;99.90;;;;;;4939849;28;92013;-34
2022/08/28 06:29:24;;;;;;;10.05;3.22;;;13.40;99.90;;;;;;4939952;28;94724;-34
2022/08/28 06:31:55;;;;;;;5.18;3.72;;;13.50;99.90;;;;;;4939739;28;95670;-30
2022/08/28 06:34:21;;;;;;;3.92;2.35;;;13.50;99.90;;;;;;4939546;28;93220;-32
2022/08/28 06:36:46;;;;;;;5.10;2.72;;;13.60;99.90;;;;;;4939745;28;92174;-31
2022/08/28 06:39:12;;;;;;;16.55;3.42;;;13.70;99.90;;;;;;4939692;28;94865;-31
2022/08/28 06:41:41;;;;;;;8.70;3.55;;;13.80;99.90;;;;;;4939673;28;94642;-31
2022/08/28 06:44:09;;;;;;;9.05;3.25;;;13.90;99.90;;;;;;4940158;28;92155;-31
2022/08/28 06:46:36;;;;;;;5.30;3.80;;;14.00;99.90;;;;;;4939297;28;92998;-33
2022/08/28 06:49:04;;;;;;;5.05;3.10;;;14.10;99.90;;;;;;4939539;28;94762;-34
2022/08/28 06:51:29;;;;;;;7.25;2.55;;;14.20;99.90;;;;;;4939518;28;93249;-32
2022/08/28 06:53:56;;;;;;;8.07;3.38;;;14.30;99.90;;;;;;4939921;28;92123;-30
2022/08/28 06:56:21;;;;;;;3.08;2.65;;;14.50;99.90;;;;;;4939522;28;92112;-32
2022/08/28 06:58:48;;;;;;;3.53;2.70;;;14.60;99.90;;;;;;4938869;28;97301;-31
2022/08/28 07:01:22;;;;;;;8.55;2.63;;;14.70;99.90;;;;;;4938544;28;95270;-36
2022/08/28 07:03:51;;;;;;;6.15;3.28;;;14.90;99.90;;;;;;4939586;28;92545;-30
2022/08/28 07:06:17;;;;;;;4.35;2.35;;;15.10;99.90;;;;;;4940138;28;95562;-31
2022/08/28 07:08:44;;;;;;;5.60;2.50;;;15.30;99.90;;;;;;4939363;28;93392;-31
2022/08/28 07:11:19;;;;;;;6.90;2.95;;;15.40;99.90;;;;;;4938384;28;94625;-34
2022/08/28 07:13:45;;;;;;;3.75;2.88;;;15.70;99.90;;;;;;4940264;28;92862;-30
2022/08/28 07:16:13;;;;;;;4.05;2.35;;;15.90;99.90;;;;;;4939684;28;92608;-30
2022/08/28 07:18:39;;;;;;;4.05;2.53;;;16.20;99.90;;;;;;4939196;28;94900;-31
2022/08/28 07:21:05;;;;;;;13.50;3.30;;;16.50;99.90;;;;;;4939523;28;94443;-30
2022/08/28 07:23:33;;;;;;;3.40;2.38;;;16.60;99.90;;;;;;4938324;28;95779;-31
2022/08/28 07:26:02;;;;;;;4.47;2.08;;;16.90;99.90;;;;;;4938889;28;94544;-32
2022/08/28 07:28:28;;;;;;;6.43;3.42;;;17.10;99.90;;;;;;4938898;28;94783;-31
2022/08/28 07:31:18;;;;;;;8.65;2.53;;;17.30;99.90;;;;;;4939308;28;94282;-34
2022/08/28 07:33:44;;;;;;;7.85;2.17;;;17.60;99.90;;;;;;4934055;28;93507;-32
2022/08/28 07:36:14;;;;;;;5.25;2.17;;;17.80;99.90;;;;;;4938711;28;94070;-33
2022/08/28 07:38:40;;;;;;;3.75;1.77;;;17.90;99.90;;;;;;4937650;28;95420;-31
2022/08/28 07:41:22;;;;;;;4.88;1.90;;;18.10;99.90;;;;;;4934426;28;94493;-32
2022/08/28 07:46:33;;;;;;;6.25;2.00;;;18.50;99.90;;;;;;4926430;28;94726;-31
2022/08/28 07:48:59;;;;;;;4.82;2.08;;;18.70;99.90;;;;;;4935181;28;96006;-31
2022/08/28 07:51:26;;;;;;;8.13;2.33;;;18.80;99.90;;;;;;4938064;28;95535;-33
2022/08/28 07:53:52;;;;;;;9.32;2.95;;;19.00;99.90;;;;;;4938771;28;94766;-34
2022/08/28 07:56:19;;;;;;;6.15;2.25;;;19.20;99.90;;;;;;4938730;28;94007;-32
2022/08/28 07:58:45;;;;;;;7.85;2.03;;;19.20;99.90;;;;;;4937846;28;94680;-32
2022/08/28 08:01:11;;;;;;;4.90;1.42;;;19.30;99.90;;;;;;4938315;28;93918;-33
2022/08/28 08:03:37;;;;;;;6.30;2.47;;;19.40;99.90;;;;;;4938569;28;94489;-31
2022/08/28 08:06:04;;;;;;;3.97;1.67;;;19.60;99.90;;;;;;4938976;28;93572;-33
2022/08/28 08:08:32;;;;;;;3.57;1.47;;;19.70;99.90;;;;;;4938664;28;94789;-32
2022/08/28 08:11:09;;;;;;;12.68;1.70;;;19.70;99.90;;;;;;4938220;28;94153;-33
2022/08/28 08:13:37;;;;;;;5.67;2.53;;;19.80;99.90;;;;;;4938034;28;95530;-32
2022/08/28 08:16:12;;;;;;;3.27;1.63;;;19.80;99.90;;;;;;4937555;28;93046;-33
2022/08/28 08:18:40;;;;;;;4.10;1.90;;;19.70;99.90;;;;;;4938101;28;94645;-33
2022/08/28 08:21:10;;;;;;;2.22;1.65;;;19.60;99.90;;;;;;4939080;28;94239;-34
2022/08/28 08:23:37;;;;;;;3.58;1.80;;;19.70;99.90;;;;;;4939201;28;95102;-30
2022/08/28 08:26:06;;;;;;;4.07;2.33;;;19.70;99.90;;;;;;4938256;28;93578;-31
2022/08/28 08:28:33;;;;;;;11.98;3.03;;;19.90;99.90;;;;;;4937268;28;94624;-31
2022/08/28 08:31:06;;;;;;;3.60;1.58;;;20.20;99.90;;;;;;4937771;28;95127;-30
2022/08/28 08:33:33;;;;;;;3.53;1.85;;;20.30;99.90;;;;;;4938294;28;94361;-33
2022/08/28 08:35:59;;;;;;;4.75;2.60;;;20.40;99.90;;;;;;4937724;28;94188;-31
2022/08/28 08:38:27;;;;;;;3.75;1.70;;;20.50;99.90;;;;;;4937305;28;95855;-31
2022/08/28 08:40:54;;;;;;;2.70;1.70;;;20.70;99.90;;;;;;4938203;28;94873;-32
2022/08/28 08:43:22;;;;;;;3.00;1.60;;;20.80;99.90;;;;;;4937964;28;93873;-33
2022/08/28 08:45:49;;;;;;;5.68;1.92;;;20.90;99.90;;;;;;4937783;28;92677;-33
2022/08/28 08:48:28;;;;;;;3.03;1.50;;;21.10;99.90;;;;;;4937860;28;94919;-35
2022/08/28 08:51:03;;;;;;;5.68;2.42;;;21.20;99.90;;;;;;4937470;28;94682;-34
2022/08/28 08:53:49;;;;;;;3.33;1.75;;;21.20;99.90;;;;;;4937582;28;94207;-31
2022/08/28 08:56:17;;;;;;;3.85;2.33;;;21.20;99.90;;;;;;4929251;28;92616;-33
2022/08/28 08:58:47;;;;;;;2.17;1.90;;;21.20;99.90;;;;;;4927381;28;94715;-31
2022/08/28 09:01:22;;;;;;;5.68;1.95;;;21.20;99.90;;;;;;4930269;28;95275;-30
2022/08/28 09:04:02;;;;;;;3.72;2.20;;;21.30;99.90;;;;;;4924253;28;95592;-34
2022/08/28 09:06:43;;;;;;;3.53;2.15;;;21.50;99.90;;;;;;4935371;28;92227;-31
2022/08/28 09:09:30;;;;;;;3.38;2.22;;;21.50;99.90;;;;;;4935384;28;95034;-34
2022/08/28 09:12:14;;;;;;;3.00;2.05;;;21.50;99.90;;;;;;4934289;28;94654;-34
2022/08/28 09:15:04;;;;;;;3.92;1.42;;;21.60;99.90;;;;;;4935486;28;92767;-31
2022/08/28 09:17:52;;;;;;;2.55;1.52;;;21.70;99.90;;;;;;4935184;28;94129;-31
2022/08/28 09:20:22;;;;;;;3.65;1.80;;;21.70;99.90;;;;;;4935098;28;94737;-31
2022/08/28 09:22:48;;;;;;;3.67;2.03;;;21.60;99.90;;;;;;4934503;28;94421;-30
2022/08/28 09:25:51;;;;;;;2.33;1.40;;;21.40;99.90;;;;;;4934793;28;94583;-29
2022/08/28 09:28:21;;;;;;;3.63;2.35;;;21.20;99.90;;;;;;4935648;28;94222;-33
2022/08/28 09:31:05;;;;;;;7.32;2.17;;;21.00;99.90;;;;;;4934445;28;95319;-30
2022/08/28 09:33:38;;;;;;;2.60;2.40;;;20.90;99.90;;;;;;4934573;28;95580;-33
2022/08/28 09:36:27;;;;;;;5.53;2.10;;;20.90;99.90;;;;;;4924043;28;92581;-31
2022/08/28 09:39:08;;;;;;;2.58;1.50;;;20.90;99.90;;;;;;4935380;28;93327;-31
2022/08/28 09:45:20;;;;;;;4.30;2.25;;;21.50;99.90;;;;;;4932807;28;94543;-32
2022/08/28 09:47:54;;;;;;;4.47;1.88;;;21.80;99.90;;;;;;4935811;28;94605;-31
2022/08/28 09:50:30;;;;;;;4.18;2.58;;;21.80;99.90;;;;;;4934726;28;91691;-31
2022/08/28 09:53:19;;;;;;;4.03;2.22;;;21.70;99.90;;;;;;4935104;28;95096;-33
2022/08/28 09:56:10;;;;;;;6.72;2.72;;;21.50;99.90;;;;;;4934270;28;94703;-34
2022/08/28 09:58:44;;;;;;;3.60;1.67;;;21.20;99.90;;;;;;4931500;28;95626;-31
2022/08/28 10:01:41;;;;;;;2.08;1.85;;;21.10;99.90;;;;;;4935083;28;93811;-33
2022/08/28 10:04:13;;;;;;;4.70;2.13;;;21.30;99.90;;;;;;4934570;28;94768;-32
2022/08/28 10:06:42;;;;;;;3.88;1.65;;;21.50;99.90;;;;;;4934769;28;94392;-34
2022/08/28 10:09:10;;;;;;;;;;;21.60;99.90;;;;;;4935586;28;92612;-33
2022/08/28 10:11:54;;;;;;;11.38;2.42;;;21.70;99.90;;;;;;4926573;28;93666;-30
2022/08/28 10:14:39;;;;;;;4.35;1.85;;;21.60;99.90;;;;;;4932626;28;94716;-32
2022/08/28 10:17:05;;;;;;;11.10;1.98;;;21.40;99.50;;;;;;4934461;28;94676;-31
2022/08/28 10:20:04;;;;;;;6.85;1.65;;;21.40;99.90;;;;;;4933670;28;92773;-30
2022/08/28 10:23:03;;;;;;;4.90;2.00;;;21.40;99.90;;;;;;4910024;28;93243;-29
2022/08/28 10:25:42;;;;;;;3.03;2.05;;;21.70;99.90;;;;;;4929845;28;95126;-30
2022/08/28 10:28:30;;;;;;;6.55;2.15;;;22.10;99.90;;;;;;4934061;28;95441;-31
2022/08/28 10:31:04;;;;;;;4.00;1.73;;;22.30;99.90;;;;;;4933494;28;93386;-31
2022/08/28 10:33:49;;;;;;;2.35;1.42;;;22.40;99.10;;;;;;4935723;28;94295;-30
2022/08/28 10:36:23;;;;;;;6.25;1.83;;;22.30;93.70;;;;;;4929764;28;93303;-33
2022/08/28 10:39:02;;;;;;;2.47;1.55;;;22.30;94.80;;;;;;4936517;28;95989;-34
2022/08/28 10:41:42;;;;;;;4.22;2.80;;;22.50;94.10;;;;;;4930933;28;94175;-32
2022/08/28 10:44:09;;;;;;;3.17;2.08;;;22.40;92.70;;;;;;4937427;28;91463;-33
2022/08/28 10:46:45;;;;;;;7.65;2.13;;;22.30;98.80;;;;;;4936343;28;95216;-32
2022/08/28 10:49:43;;;;;;;7.10;2.15;;;22.20;99.90;;;;;;4936419;28;94595;-34
2022/08/28 10:52:25;;;;;;;7.50;2.38;;;22.30;99.90;;;;;;4937186;28;95310;-32
2022/08/28 10:55:17;;;;;;;6.55;1.90;;;22.50;97.90;;;;;;4937001;28;93590;-31
2022/08/28 10:57:57;;;;;;;10.85;2.30;;;22.50;91.40;;;;;;4937135;28;94664;-33
2022/08/28 11:00:25;;;;;;;1.60;1.30;;;22.20;83.00;;;;;;4937278;28;93421;-30
2022/08/28 11:02:53;;;;;;;;;;;21.90;90.20;;;;;;4937689;28;93155;-32
2022/08/28 11:05:23;;;;;;;;;;;21.80;91.20;;;;;;4938785;28;92197;-31
2022/08/28 11:07:55;;;;;;;4.93;1.90;;;21.80;96.10;;;;;;4937875;28;95136;-32
2022/08/28 11:10:37;;;;;;;3.13;1.42;;;22.00;87.90;;;;;;4937222;28;95042;-33
2022/08/28 11:13:08;;;;;;;3.33;2.25;;;22.10;86.60;;;;;;4936566;28;93459;-33
2022/08/28 11:15:35;;;;;;;2.92;2.08;;;22.20;92.30;;;;;;4936512;28;92693;-32
2022/08/28 11:18:12;;;;;;;4.57;2.67;;;22.20;91.90;;;;;;4936592;28;95499;-36
2022/08/28 11:20:39;;;;;;;;;;;22.10;94.80;;;;;;4937400;28;95355;-32
2022/08/28 11:23:15;;;;;;;5.05;1.90;;;21.90;95.80;;;;;;4938204;28;93799;-31
2022/08/28 11:25:59;;;;;;;4.55;2.28;;;21.60;99.80;;;;;;4937338;28;94136;-32
2022/08/28 11:28:24;;;;;;;4.95;2.47;;;21.60;99.90;;;;;;4936642;28;95048;-31
2022/08/28 11:31:05;;;;;;;9.98;2.28;;;21.70;93.70;;;;;;4935513;28;94278;-30
2022/08/28 11:33:47;;;;;;;3.85;2.00;;;21.80;93.10;;;;;;4936049;28;94116;-32
2022/08/28 11:36:18;;;;;;;2.30;1.95;;;22.00;96.00;;;;;;4936629;28;92466;-30
2022/08/28 11:38:44;;;;;;;4.03;2.25;;;22.00;95.70;;;;;;4936461;28;94748;-33
2022/08/28 11:41:14;;;;;;;6.80;2.60;;;22.10;96.00;;;;;;4936207;28;94912;-31
2022/08/28 11:43:42;;;;;;;4.95;2.35;;;22.30;97.20;;;;;;4936513;28;93927;-31
2022/08/28 11:46:22;;;;;;;;;;;22.20;84.50;;;;;;4932033;28;92351;-32
2022/08/28 11:48:53;;;;;;;8.75;1.80;;;22.00;81.00;;;;;;4925724;28;94406;-32
2022/08/28 11:51:48;;;;;;;3.00;1.90;;;21.70;76.50;;;;;;4920654;28;96209;-33
2022/08/28 11:54:37;;;;;;;5.65;2.53;;;21.70;82.60;;;;;;4929465;28;92953;-32
2022/08/28 11:57:12;;;;;;;4.68;1.80;;;21.90;84.10;;;;;;4925931;28;94551;-34
2022/08/28 12:00:09;;;;;;;3.75;1.65;;;22.10;83.00;;;;;;4936114;28;95351;-31
2022/08/28 12:02:38;;;;;;;3.53;1.83;;;22.20;75.10;;;;;;4935643;28;94445;-35
2022/08/28 12:05:08;;;;;;;5.07;2.63;;;22.30;70.10;;;;;;4932302;28;93268;-34
2022/08/28 12:07:40;;;;;;;3.97;2.45;;;22.40;78.10;;;;;;4936781;28;94645;-29
2022/08/28 12:10:21;;;;;;;4.65;1.65;;;22.50;78.00;;;;;;4935037;28;95616;-32
2022/08/28 12:12:46;;;;;;;3.63;1.90;;;22.50;70.60;;;;;;4922913;28;94418;-34
2022/08/28 12:15:37;;;;;;;4.88;2.35;;;22.20;70.10;;;;;;4934228;28;94187;-33
2022/08/28 12:18:03;;;;;;;5.90;2.38;;;21.80;78.20;;;;;;4935880;28;93817;-31
2022/08/28 12:20:57;;;;;;;2.33;1.67;;;21.80;79.90;;;;;;4934926;28;94775;-31
2022/08/28 12:23:39;;;;;;;3.90;1.45;;;21.80;85.10;;;;;;4936286;28;94920;-33
2022/08/28 12:26:14;;;;;;;3.38;1.73;;;21.70;76.80;;;;;;4935922;28;92718;-30
2022/08/28 12:29:04;;;;;;;5.63;1.92;;;21.50;83.80;;;;;;4936274;28;93618;-31
2022/08/28 12:32:13;;;;;;;5.43;2.30;;;21.50;86.60;;;;;;4971335;22;94847;-31
2022/08/28 12:34:57;;;;;;;3.85;2.65;;;21.70;81.50;;;;;;4935790;28;94519;-33
2022/08/28 12:37:35;;;;;;;6.43;1.92;;;21.90;83.60;;;;;;4935015;28;95251;-32
2022/08/28 12:40:11;;;;;;;2.80;2.05;;;21.90;77.30;;;;;;4934901;28;92308;-30
2022/08/28 12:42:44;;;;;;;7.53;2.70;;;21.80;75.50;;;;;;4935740;28;95147;-32
2022/08/28 12:45:21;;;;;;;3.63;2.08;;;21.80;78.40;;;;;;4935519;28;93417;-29
2022/08/28 12:47:50;;;;;;;2.38;1.65;;;22.00;77.00;;;;;;4925272;28;93184;-32
2022/08/28 12:50:24;;;;;;;3.00;1.40;;;22.00;84.00;;;;;;4934671;28;94428;-33
2022/08/28 12:52:53;;;;;;;4.78;1.48;;;22.10;74.60;;;;;;4935054;28;94631;-32
2022/08/28 12:55:20;;;;;;;5.22;1.95;;;22.20;72.40;;;;;;4926519;28;94388;-31
2022/08/28 12:57:47;;;;;;;6.38;2.20;;;22.10;69.60;;;;;;4935795;28;93180;-34
2022/08/28 13:00:19;;;;;;;2.97;1.90;;;22.00;69.40;;;;;;4924547;28;95244;-30
2022/08/28 13:02:46;;;;;;;4.47;1.77;;;22.10;71.50;;;;;;4934453;28;95483;-34
2022/08/28 13:05:39;;;;;;;2.33;1.65;;;22.10;68.50;;;;;;4934218;28;95334;-31
2022/08/28 13:08:09;;;;;;;4.43;1.80;;;22.10;69.10;;;;;;4934166;28;93233;-32
2022/08/28 13:10:46;;;;;;;4.20;2.20;;;22.00;71.30;;;;;;4935115;28;94249;-34
2022/08/28 13:13:34;;;;;;;4.90;2.00;;;22.00;72.40;;;;;;4934789;28;95060;-35
2022/08/28 13:16:11;;;;;;;8.23;2.50;;;21.80;73.50;;;;;;4926962;28;94747;-31